Latest Weather Observations for Merriwa

IDN60801

Issued at 11:35 am EST Monday 15 September 2014 (issued every 30 minutes, with the page automatically refreshed every 10 minutes)

About weather observations | Map of weather stations | Latest weather observations for NSW | Other Formats
Station Details ID: 061287 Name: MERRIWA (ROSCOMMON) Lat: -32.19 Lon: 150.17 Height: 375.0 m
Data from the previous 72 hours. | See also: Recent months at Merriwa
Date/Time
EST
Temp
°C
App
Temp
°C
Dew
Point
Rel
Hum
%
Delta-T
°C
Wind Press
QNH
hPa
Press
MSL
hPa
Rain
since 9 am
mm
Dir
 
Spd
km/h
Gust
km/h
Spd
kts
Gust
kts
15/11:30am 19.3 18.2 10.8 58 4.7 SE 7 15 4 8 1017.5 - 0.0
15/11:00am 17.9 16.3 10.3 61 4.1 NE 9 13 5 7 1018.1 - 0.0
15/10:30am 17.3 16.5 11.6 69 3.2 E 7 13 4 7 1018.5 - 0.0
15/10:00am 16.2 15.0 11.6 74 2.5 E 9 20 5 11 1019.0 - 0.0
15/09:35am 14.7 13.1 10.3 75 2.3 ESE 9 11 5 6 1019.3 - 0.0
15/09:30am 15.2 14.2 11.0 76 2.3 E 7 11 4 6 1019.3 - 0.0
15/09:00am 13.3 11.6 9.9 80 1.8 SSE 9 13 5 7 1019.6 1019.7 0.0
15/08:30am 13.1 12.8 10.1 82 1.6 W 2 7 1 4 1019.6 - 0.0
15/08:00am 11.3 11.1 9.2 87 1.1 CALM 0 0 0 0 1019.6 - 0.0
15/07:30am 9.5 8.4 8.3 92 0.6 WSW 4 7 2 4 1019.6 - 0.0
15/07:00am 8.3 7.3 7.5 95 0.4 SW 2 9 1 5 1019.3 - 0.0
15/06:30am 7.3 6.6 7.0 98 0.1 CALM 0 6 0 3 1019.2 - 0.0
15/06:00am 6.2 3.9 5.9 98 0.1 SW 7 11 4 6 1019.0 1019.0 0.0
15/05:30am 5.2 2.8 5.1 99 0.0 E 7 9 4 5 1018.8 - 0.0
15/05:14am 3.7 2.3 3.4 98 0.1 CALM 0 0 0 0 1018.7 - 0.0
15/05:00am 4.1 2.7 3.8 98 0.1 CALM 0 0 0 0 1018.5 - 0.0
15/04:30am 3.9 2.5 3.6 98 0.1 CALM 0 0 0 0 1018.4 - 0.0
15/04:00am 4.5 3.2 4.2 98 0.1 CALM 0 0 0 0 1018.3 - 0.0
15/03:30am 3.7 2.3 3.4 98 0.1 CALM 0 0 0 0 1018.2 - 0.0
15/03:00am 4.3 3.0 3.9 97 0.2 CALM 0 0 0 0 1018.3 1018.3 0.0
15/02:30am 4.5 3.1 3.8 95 0.3 CALM 0 0 0 0 1018.6 - 0.0
15/02:00am 5.4 2.8 4.2 92 0.5 E 7 11 4 6 1018.5 - 0.0
15/01:30am 6.5 5.3 4.8 89 0.8 CALM 0 0 0 0 1018.5 - 0.0
15/01:00am 6.2 4.9 4.0 86 1.0 CALM 0 0 0 0 1018.6 - 0.0
15/12:30am 7.7 6.5 4.8 82 1.3 CALM 0 0 0 0 1018.8 - 0.0
15/12:00am 8.3 5.8 3.8 73 2.0 WNW 6 9 3 5 1019.0 1019.0 0.0
 
Date/Time
EST
Temp
°C
App
Temp
°C
Dew
Point
Rel
Hum
%
Delta-T
°C
Wind Press
QNH
hPa
Press
MSL
hPa
Rain
since 9 am
mm
Dir
 
Spd
km/h
Gust
km/h
Spd
kts
Gust
kts
14/11:30pm 11.2 7.6 4.9 65 2.9 NW 13 15 7 8 1018.9 - 0.0
14/11:00pm 11.6 8.4 5.3 65 3.0 NW 11 15 6 8 1019.1 - 0.0
14/10:30pm 11.3 8.1 5.2 66 2.9 NW 11 13 6 7 1019.1 - 0.0
14/10:00pm 11.7 8.3 5.8 67 2.8 NW 13 15 7 8 1019.2 - 0.0
14/09:30pm 11.5 8.1 5.8 68 2.7 NW 13 13 7 7 1019.2 - 0.0
14/09:00pm 12.3 9.2 5.7 64 3.1 WNW 11 13 6 7 1019.2 1019.2 0.0
14/08:30pm 12.1 9.3 5.3 63 3.2 WNW 9 11 5 6 1018.9 - 0.0
14/08:00pm 12.6 9.8 5.1 60 3.5 W 9 11 5 6 1018.7 - 0.0
14/07:30pm 12.5 9.8 5.4 62 3.4 W 9 11 5 6 1018.5 - 0.0
14/07:00pm 13.1 10.7 4.5 56 4.0 W 6 7 3 4 1018.2 - 0.0
14/06:30pm 16.5 13.6 4.5 45 5.8 WSW 9 13 5 7 1017.9 - 0.0
14/06:00pm 19.1 15.7 4.1 37 7.3 WSW 11 15 6 8 1017.5 1017.5 0.0
14/05:30pm 20.8 17.1 4.4 34 8.1 WSW 13 20 7 11 1017.3 - 0.0
14/05:00pm 22.2 17.6 5.6 34 8.5 WNW 19 28 10 15 1017.0 - 0.0
14/04:30pm 22.4 19.0 5.8 34 8.5 W 13 20 7 11 1017.0 - 0.0
14/04:00pm 23.4 18.0 4.4 29 9.6 WNW 22 33 12 18 1017.0 - 0.0
14/03:30pm 23.8 19.5 5.2 30 9.5 NW 17 20 9 11 1017.0 - 0.0
14/03:00pm 23.7 19.0 5.1 30 9.5 W 19 30 10 16 1017.1 1017.2 0.0
14/02:30pm 23.9 19.1 5.8 31 9.4 WNW 20 28 11 15 1017.2 - 0.0
14/02:00pm 23.3 19.7 6.6 34 8.7 WNW 15 22 8 12 1017.6 - 0.0
14/01:30pm 23.4 19.8 8.3 38 8.2 WNW 17 22 9 12 1017.9 - 0.0
14/01:00pm 22.8 18.8 8.1 39 7.9 NW 19 26 10 14 1018.4 - 0.0
14/12:30pm 23.3 20.0 9.7 42 7.5 NW 17 30 9 16 1018.8 - 0.0
14/12:00pm 22.3 17.9 8.8 42 7.3 NW 22 32 12 17 1019.4 1019.5 0.0
14/11:30am 21.8 18.6 10.0 47 6.5 W 17 26 9 14 1020.1 - 0.0
14/11:00am 20.3 17.8 9.8 51 5.7 WNW 13 20 7 11 1020.7 - 0.0
14/10:30am 19.2 17.0 12.0 63 4.1 WNW 15 22 8 12 1021.3 - 0.0
14/10:00am 17.4 16.5 12.7 74 2.7 NW 9 15 5 8 1021.6 - 0.0
14/09:30am 14.6 14.7 14.0 96 0.3 WNW 6 9 3 5 1022.0 - 0.0
14/09:26am 14.0 13.7 13.2 95 0.4 W 7 11 4 6 1022.1 - 0.0
14/09:00am 12.1 11.4 11.9 99 0.1 W 7 11 4 6 1022.3 1022.4 0.0
14/08:30am 11.4 10.5 11.2 99 0.1 W 7 11 4 6 1022.4 - 0.0
14/08:00am 11.0 9.9 10.8 99 0.1 W 7 11 4 6 1022.5 - 0.0
14/07:30am 10.6 9.1 10.4 99 0.1 W 9 13 5 7 1022.4 - 0.0
14/07:00am 10.7 9.2 10.5 99 0.1 WNW 9 15 5 8 1022.1 - 0.0
14/06:30am 11.0 9.9 10.8 99 0.1 NW 7 11 4 6 1021.7 - 0.0
14/06:00am 11.0 10.5 10.8 99 0.1 ENE 4 9 2 5 1021.6 1021.6 0.0
14/05:30am 11.0 11.3 10.8 99 0.1 CALM 0 0 0 0 1021.2 - 0.0
14/05:00am 11.1 11.4 10.9 99 0.1 CALM 0 4 0 2 1021.0 - 0.0
14/04:30am 11.2 11.5 11.0 99 0.1 CALM 0 0 0 0 1021.0 - 0.0
14/04:00am 10.9 10.4 10.7 99 0.1 ESE 4 7 2 4 1021.0 - 0.0
14/03:30am 9.0 7.6 8.9 99 0.0 ESE 6 7 3 4 1021.1 - 0.0
14/03:00am 8.0 7.5 7.9 99 0.0 CALM 0 0 0 0 1021.4 1021.4 0.0
14/02:30am 7.9 7.4 7.8 99 0.0 CALM 0 0 0 0 1021.7 - 0.0
14/02:00am 6.9 6.2 6.8 99 0.0 CALM 0 0 0 0 1022.1 - 0.0
14/01:38am 6.5 5.7 6.4 99 0.0 CALM 0 0 0 0 1022.2 - 0.0
14/01:30am 6.8 6.0 6.7 99 0.0 CALM 0 0 0 0 1022.1 - 0.0
14/01:00am 7.2 6.5 7.1 99 0.0 CALM 0 0 0 0 1022.3 - 0.0
14/12:30am 7.2 6.5 7.1 99 0.0 CALM 0 0 0 0 1022.5 - 0.0
14/12:00am 7.3 6.2 7.0 98 0.1 ESE 2 6 1 3 1022.5 1022.6 0.0
 
Date/Time
EST
Temp
°C
App
Temp
°C
Dew
Point
Rel
Hum
%
Delta-T
°C
Wind Press
QNH
hPa
Press
MSL
hPa
Rain
since 9 am
mm
Dir
 
Spd
km/h
Gust
km/h
Spd
kts
Gust
kts
13/11:30pm 8.5 6.8 8.2 98 0.1 ESE 7 7 4 4 1022.5 - 0.0
13/11:00pm 9.8 8.1 9.7 99 0.1 ESE 9 11 5 6 1022.7 - 0.0
13/10:30pm 10.1 8.8 9.9 99 0.1 ESE 7 9 4 5 1022.9 - 0.0
13/10:00pm 10.5 9.3 10.2 98 0.2 E 7 9 4 5 1023.2 - 0.0
13/09:30pm 11.3 10.3 11.0 98 0.2 E 7 7 4 4 1023.2 - 0.0
13/09:00pm 11.5 9.9 10.2 92 0.7 ENE 9 13 5 7 1023.1 1023.1 0.0
13/08:30pm 10.7 8.7 8.5 86 1.1 ENE 9 11 5 6 1022.8 - 0.0
13/08:00pm 11.6 10.2 9.5 87 1.1 NE 7 9 4 5 1022.7 - 0.0
13/07:30pm 11.9 10.0 9.1 83 1.4 NE 9 11 5 6 1022.6 - 0.0
13/07:00pm 13.1 11.3 9.5 79 1.9 E 9 13 5 7 1022.6 - 0.0
13/06:30pm 14.2 12.5 9.8 75 2.3 E 9 11 5 6 1022.2 - 0.0
13/06:00pm 14.9 13.9 10.3 74 2.4 ENE 6 7 3 4 1022.0 1022.1 0.0
13/05:30pm 17.8 16.7 10.7 63 3.9 NE 7 9 4 5 1021.7 - 0.0
13/05:00pm 19.5 18.3 10.2 55 5.1 NE 7 11 4 6 1021.7 - 0.0
13/04:30pm 19.9 18.2 10.0 53 5.4 ENE 9 13 5 7 1021.7 - 0.0
13/04:00pm 20.2 18.5 10.0 52 5.6 NE 9 11 5 6 1021.8 - 0.0
13/03:30pm 19.8 18.5 10.0 53 5.3 SSW 7 9 4 5 1022.0 - 0.0
13/03:00pm 20.0 18.9 10.7 55 5.1 E 7 11 4 6 1022.3 1022.4 0.0
13/02:30pm 20.1 19.3 11.8 59 4.7 E 7 11 4 6 1022.4 - 0.0
13/02:00pm 19.3 17.8 10.6 57 4.8 E 9 15 5 8 1022.8 - 0.0
13/01:30pm 19.1 17.6 10.6 58 4.7 E 9 15 5 8 1023.4 - 0.0
13/01:00pm 18.5 17.2 11.3 63 4.0 SE 9 17 5 9 1023.7 - 0.0
13/12:30pm 17.8 16.1 11.1 65 3.7 SE 11 17 6 9 1024.2 - 0.0
13/12:00pm 16.8 15.5 11.3 70 3.0 ESE 9 17 5 9 1024.8 1024.9 0.0
13/11:30am 16.0 15.2 11.8 76 2.3 SE 7 13 4 7 1025.3 - 0.0
13/11:20am 15.6 14.3 11.2 75 2.4 ESE 9 13 5 7 1025.4 - 0.0
13/11:00am 15.3 13.7 11.7 79 2.0 ESE 11 17 6 9 1025.6 - 0.0
13/10:30am 15.0 13.4 11.6 80 1.9 ENE 11 20 6 11 1025.9 - 0.0
13/10:00am 13.9 12.6 11.1 83 1.5 ENE 9 15 5 8 1026.3 - 0.0
13/09:30am 13.3 11.5 10.7 84 1.4 ENE 11 17 6 9 1026.3 - 0.0
13/09:00am 12.8 11.4 11.0 89 1.0 E 9 13 5 7 1026.5 1026.6 0.0
13/08:40am 12.7 11.6 11.8 94 0.5 ENE 9 13 5 7 1026.3 - 0.0
13/08:30am 12.3 10.7 11.4 94 0.5 ENE 11 15 6 8 1026.2 - 0.0
13/08:00am 12.1 11.0 11.8 98 0.2 E 9 13 5 7 1025.9 - 0.0
13/07:30am 11.4 10.5 11.2 99 0.1 NE 7 11 4 6 1025.6 - 0.0
13/07:00am 10.6 9.6 10.4 99 0.1 ESE 6 7 3 4 1025.3 - 0.0
13/06:30am 10.1 8.8 9.9 99 0.1 ESE 7 9 4 5 1024.9 - 0.0
13/06:18am 9.9 9.5 9.8 99 0.1 ESE 2 7 1 4 1024.8 - 0.0
13/06:00am 9.8 9.0 9.7 99 0.1 ESE 4 7 2 4 1024.6 1024.7 0.0
13/05:30am 9.7 8.3 9.6 99 0.1 ESE 7 9 4 5 1024.3 - 0.0
13/05:00am 9.4 9.3 9.3 99 0.1 CALM 0 0 0 0 1024.1 - 0.0
13/04:30am 9.4 9.3 9.3 99 0.1 CALM 0 6 0 3 1023.8 - 0.0
13/04:00am 9.1 7.7 9.0 99 0.1 ESE 6 7 3 4 1023.7 - 0.0
13/03:52am 9.2 7.7 9.1 99 0.1 ESE 7 7 4 4 1023.7 - 0.0
13/03:30am 8.6 7.1 8.5 99 0.0 ESE 6 7 3 4 1023.8 - 0.0
13/03:00am 8.1 6.5 8.0 99 0.0 ESE 6 7 3 4 1023.9 1023.9 0.0
13/02:30am 6.8 4.9 6.7 99 0.0 ESE 6 7 3 4 1024.1 - 0.0
13/02:00am 5.7 3.5 5.4 98 0.1 ESE 6 7 3 4 1024.2 - 0.0
13/01:30am 7.0 4.9 6.7 98 0.1 ESE 7 9 4 5 1024.3 - 0.0
13/01:00am 8.0 6.2 7.9 99 0.0 ESE 7 9 4 5 1024.6 - 0.0
13/12:30am 7.7 5.0 7.4 98 0.1 SE 11 13 6 7 1024.8 - 0.0
13/12:00am 8.6 6.5 8.3 98 0.1 SE 9 13 5 7 1025.0 1025.1 0.0
 
Date/Time
EST
Temp
°C
App
Temp
°C
Dew
Point
Rel
Hum
%
Delta-T
°C
Wind Press
QNH
hPa
Press
MSL
hPa
Rain
since 9 am
mm
Dir
 
Spd
km/h
Gust
km/h
Spd
kts
Gust
kts
12/11:30pm 9.2 6.9 8.9 98 0.1 SE 11 13 6 7 1025.0 - 0.0
12/11:00pm 8.8 6.8 8.5 98 0.1 ESE 9 13 5 7 1025.0 - 0.0
12/10:30pm 9.6 7.4 9.3 98 0.2 ESE 11 15 6 8 1025.1 - 0.0
12/10:00pm 10.1 8.0 9.8 98 0.2 ESE 11 15 6 8 1025.0 - 0.0
12/09:30pm 10.0 7.5 9.7 98 0.2 ESE 13 17 7 9 1025.1 - 0.0
12/09:00pm 10.6 8.1 9.8 95 0.4 ESE 13 19 7 10 1025.0 1025.1 0.0
12/08:30pm 11.5 9.5 10.2 92 0.7 E 11 20 6 11 1024.7 - 0.0
12/08:00pm 11.4 9.2 9.3 87 1.1 E 11 15 6 8 1024.4 - 0.0
12/07:30pm 12.5 10.0 9.7 83 1.5 E 13 20 7 11 1024.1 - 0.0
12/07:00pm 13.4 9.8 10.0 80 1.8 E 19 24 10 13 1023.7 - 0.0
12/06:30pm 13.6 9.9 9.6 77 2.1 E 19 24 10 13 1023.4 - 0.0
12/06:00pm 14.0 10.5 8.6 70 2.8 E 17 20 9 11 1022.9 1023.0 0.0
12/05:30pm 16.1 13.3 7.1 55 4.5 E 11 15 6 8 1022.5 - 0.0
12/05:00pm 17.6 14.8 7.1 50 5.4 E 11 15 6 8 1022.4 - 0.0
12/04:30pm 18.6 15.4 6.8 46 6.0 E 13 19 7 10 1022.4 - 0.0
12/04:00pm 18.8 15.5 6.3 44 6.3 E 13 19 7 10 1022.4 - 0.0
12/03:30pm 19.4 16.7 7.5 46 6.2 ESE 11 17 6 9 1022.4 - 0.0
12/03:00pm 19.1 16.1 6.2 43 6.5 E 11 17 6 9 1022.5 1022.6 0.0
12/02:30pm 18.9 16.3 7.7 48 5.8 ESE 11 20 6 11 1022.7 - 0.0
12/02:00pm 18.8 15.4 7.6 48 5.8 E 15 20 8 11 1022.8 - 0.0
12/01:30pm 17.1 13.8 8.0 55 4.7 SE 15 20 8 11 1023.2 - 0.0
12/01:00pm 18.8 15.8 7.6 48 5.8 E 13 20 7 11 1023.5 - 0.0
12/12:30pm 17.9 15.7 9.5 58 4.5 ENE 11 19 6 10 1023.8 - 0.0
12/12:00pm 16.5 14.1 9.9 65 3.5 ESE 13 19 7 10 1024.3 1024.4 0.0

Other Formats:

Comma delimited format used in spreadsheet applications
http://www.bom.gov.au/fwo/IDN60801/IDN60801.95754.axf

JavaScript Object Notation format (JSON) in row-major order
http://www.bom.gov.au/fwo/IDN60801/IDN60801.95754.json